Chicago, Illinois
Traffic Map
Current Weather Conditions
Chicago, Illinois
Overcast Light Snow
Overcast
-8°
Feels Like: -15°
Wind Chill: -15° Ceiling: 1800
Heat Index: -8° Visibility: 1.2mi
Dew Point: -12° Wind: 14mph
Humidity: 74% Direction: 120° (ESE)
Pressure: 30.14in Gusts: 0mph
Raw Report DataKMDW 142053Z 12012KT 1 1/4SM -SN BKN018 OVC027 M08/M12 A3014 RMK AO2 SLP226 P0000 60000 T10781117 56036 $
Traffic Incident Summary
Active as of:
Severity:
Category:
InformationThere was an issue retrieving the traffic information for this location. Please try a different location or try again shortly.
Advertisements
Track Severe Weather on mobile